sensor_id;sensor_type;location;lat;lon;timestamp;P1;durP1;ratioP1;P2;durP2;ratioP2
2061;SDS011;11070;51.336;12.340;2023-08-20T00:01:28;9.63;;;8.73;;
2061;SDS011;11070;51.336;12.340;2023-08-20T00:03:54;10.73;;;8.70;;
2061;SDS011;11070;51.336;12.340;2023-08-20T00:06:20;10.30;;;8.70;;
2061;SDS011;11070;51.336;12.340;2023-08-20T00:08:47;11.70;;;8.73;;
2061;SDS011;11070;51.336;12.340;2023-08-20T00:11:13;9.40;;;8.50;;
2061;SDS011;11070;51.336;12.340;2023-08-20T00:13:40;10.40;;;9.40;;
2061;SDS011;11070;51.336;12.340;2023-08-20T00:16:06;11.47;;;9.70;;
2061;SDS011;11070;51.336;12.340;2023-08-20T00:18:32;8.70;;;7.93;;
2061;SDS011;11070;51.336;12.340;2023-08-20T00:20:58;9.30;;;8.40;;
2061;SDS011;11070;51.336;12.340;2023-08-20T00:23:25;14.80;;;9.93;;
2061;SDS011;11070;51.336;12.340;2023-08-20T00:25:51;10.67;;;9.33;;
2061;SDS011;11070;51.336;12.340;2023-08-20T00:28:18;9.00;;;8.20;;
2061;SDS011;11070;51.336;12.340;2023-08-20T00:30:45;9.90;;;8.77;;
2061;SDS011;11070;51.336;12.340;2023-08-20T00:33:11;12.83;;;9.50;;
2061;SDS011;11070;51.336;12.340;2023-08-20T00:35:37;8.83;;;7.93;;
2061;SDS011;11070;51.336;12.340;2023-08-20T00:38:03;11.73;;;9.00;;
2061;SDS011;11070;51.336;12.340;2023-08-20T00:40:30;12.80;;;9.33;;
2061;SDS011;11070;51.336;12.340;2023-08-20T00:42:56;10.37;;;9.33;;
2061;SDS011;11070;51.336;12.340;2023-08-20T00:45:22;12.83;;;9.10;;
2061;SDS011;11070;51.336;12.340;2023-08-20T00:47:48;12.60;;;9.53;;
2061;SDS011;11070;51.336;12.340;2023-08-20T00:50:14;11.07;;;9.20;;
2061;SDS011;11070;51.336;12.340;2023-08-20T00:52:41;13.20;;;9.23;;
2061;SDS011;11070;51.336;12.340;2023-08-20T00:55:08;12.87;;;9.93;;
2061;SDS011;11070;51.336;12.340;2023-08-20T00:57:36;10.03;;;8.13;;
2061;SDS011;11070;51.336;12.340;2023-08-20T01:00:03;9.90;;;9.00;;
2061;SDS011;11070;51.336;12.340;2023-08-20T01:02:36;14.60;;;9.30;;
2061;SDS011;11070;51.336;12.340;2023-08-20T01:05:03;9.57;;;8.60;;
2061;SDS011;11070;51.336;12.340;2023-08-20T01:07:54;12.20;;;9.67;;
2061;SDS011;11070;51.336;12.340;2023-08-20T01:13:27;10.20;;;9.20;;
2061;SDS011;11070;51.336;12.340;2023-08-20T01:15:53;10.40;;;9.60;;
2061;SDS011;11070;51.336;12.340;2023-08-20T01:18:19;16.70;;;9.83;;
2061;SDS011;11070;51.336;12.340;2023-08-20T01:20:45;10.03;;;9.03;;
2061;SDS011;11070;51.336;12.340;2023-08-20T01:28:50;9.47;;;8.33;;
2061;SDS011;11070;51.336;12.340;2023-08-20T01:31:16;10.03;;;9.10;;
2061;SDS011;11070;51.336;12.340;2023-08-20T01:33:43;13.73;;;10.20;;
2061;SDS011;11070;51.336;12.340;2023-08-20T01:36:09;11.00;;;10.00;;
2061;SDS011;11070;51.336;12.340;2023-08-20T01:38:35;12.83;;;10.03;;
2061;SDS011;11070;51.336;12.340;2023-08-20T01:41:02;12.70;;;10.33;;
2061;SDS011;11070;51.336;12.340;2023-08-20T01:43:28;13.13;;;11.83;;
2061;SDS011;11070;51.336;12.340;2023-08-20T01:45:53;14.40;;;11.57;;
2061;SDS011;11070;51.336;12.340;2023-08-20T01:48:19;13.23;;;11.90;;
2061;SDS011;11070;51.336;12.340;2023-08-20T01:50:45;14.40;;;12.93;;
2061;SDS011;11070;51.336;12.340;2023-08-20T01:53:11;15.63;;;14.13;;
2061;SDS011;11070;51.336;12.340;2023-08-20T01:55:37;18.67;;;13.97;;
2061;SDS011;11070;51.336;12.340;2023-08-20T01:58:03;15.97;;;14.30;;
2061;SDS011;11070;51.336;12.340;2023-08-20T02:00:28;16.80;;;15.30;;
2061;SDS011;11070;51.336;12.340;2023-08-20T02:02:55;16.80;;;15.30;;
2061;SDS011;11070;51.336;12.340;2023-08-20T02:05:21;18.20;;;16.00;;
2061;SDS011;11070;51.336;12.340;2023-08-20T02:07:47;16.80;;;15.30;;
2061;SDS011;11070;51.336;12.340;2023-08-20T02:10:13;19.53;;;16.83;;
2061;SDS011;11070;51.336;12.340;2023-08-20T02:12:39;18.53;;;16.83;;
2061;SDS011;11070;51.336;12.340;2023-08-20T02:15:05;19.30;;;17.40;;
2061;SDS011;11070;51.336;12.340;2023-08-20T02:17:32;19.07;;;17.17;;
2061;SDS011;11070;51.336;12.340;2023-08-20T02:19:58;19.37;;;17.27;;
2061;SDS011;11070;51.336;12.340;2023-08-20T02:22:23;19.83;;;17.83;;
2061;SDS011;11070;51.336;12.340;2023-08-20T02:24:49;19.30;;;17.27;;
2061;SDS011;11070;51.336;12.340;2023-08-20T02:27:14;19.53;;;17.63;;
2061;SDS011;11070;51.336;12.340;2023-08-20T02:29:40;18.83;;;17.13;;
2061;SDS011;11070;51.336;12.340;2023-08-20T02:32:06;19.90;;;17.80;;
2061;SDS011;11070;51.336;12.340;2023-08-20T02:34:32;20.80;;;18.80;;
2061;SDS011;11070;51.336;12.340;2023-08-20T02:36:57;21.00;;;18.60;;
2061;SDS011;11070;51.336;12.340;2023-08-20T02:39:23;20.20;;;18.30;;
2061;SDS011;11070;51.336;12.340;2023-08-20T02:41:50;18.77;;;16.97;;
2061;SDS011;11070;51.336;12.340;2023-08-20T02:44:15;21.63;;;19.63;;
2061;SDS011;11070;51.336;12.340;2023-08-20T02:46:41;22.47;;;20.10;;
2061;SDS011;11070;51.336;12.340;2023-08-20T02:49:09;19.50;;;17.60;;
2061;SDS011;11070;51.336;12.340;2023-08-20T02:51:35;21.97;;;19.80;;
2061;SDS011;11070;51.336;12.340;2023-08-20T02:54:01;20.80;;;18.60;;
2061;SDS011;11070;51.336;12.340;2023-08-20T02:56:27;21.47;;;19.37;;
2061;SDS011;11070;51.336;12.340;2023-08-20T02:58:52;21.10;;;18.77;;
2061;SDS011;11070;51.336;12.340;2023-08-20T03:01:19;24.10;;;20.93;;
2061;SDS011;11070;51.336;12.340;2023-08-20T03:03:49;21.60;;;19.47;;
2061;SDS011;11070;51.336;12.340;2023-08-20T03:06:15;21.30;;;19.00;;
2061;SDS011;11070;51.336;12.340;2023-08-20T03:08:40;20.93;;;18.83;;
2061;SDS011;11070;51.336;12.340;2023-08-20T03:11:06;21.20;;;18.93;;
2061;SDS011;11070;51.336;12.340;2023-08-20T03:13:32;24.17;;;20.03;;
2061;SDS011;11070;51.336;12.340;2023-08-20T03:15:58;23.27;;;20.70;;
2061;SDS011;11070;51.336;12.340;2023-08-20T03:18:23;21.40;;;19.30;;
2061;SDS011;11070;51.336;12.340;2023-08-20T03:20:49;21.03;;;18.93;;
2061;SDS011;11070;51.336;12.340;2023-08-20T03:23:15;23.83;;;19.57;;
2061;SDS011;11070;51.336;12.340;2023-08-20T03:25:40;22.00;;;19.70;;
2061;SDS011;11070;51.336;12.340;2023-08-20T03:28:06;19.93;;;17.93;;
2061;SDS011;11070;51.336;12.340;2023-08-20T03:30:31;22.10;;;19.97;;
2061;SDS011;11070;51.336;12.340;2023-08-20T03:32:58;21.33;;;18.67;;
2061;SDS011;11070;51.336;12.340;2023-08-20T03:35:24;22.63;;;20.53;;
2061;SDS011;11070;51.336;12.340;2023-08-20T03:37:50;22.60;;;20.30;;
2061;SDS011;11070;51.336;12.340;2023-08-20T03:40:15;21.80;;;19.50;;
2061;SDS011;11070;51.336;12.340;2023-08-20T03:42:44;20.77;;;18.57;;
2061;SDS011;11070;51.336;12.340;2023-08-20T03:45:10;20.53;;;18.30;;
2061;SDS011;11070;51.336;12.340;2023-08-20T03:47:35;22.30;;;18.93;;
2061;SDS011;11070;51.336;12.340;2023-08-20T03:50:02;20.67;;;18.37;;
2061;SDS011;11070;51.336;12.340;2023-08-20T03:52:28;22.30;;;19.90;;
2061;SDS011;11070;51.336;12.340;2023-08-20T03:54:54;21.57;;;19.47;;
2061;SDS011;11070;51.336;12.340;2023-08-20T03:57:19;22.53;;;20.23;;
2061;SDS011;11070;51.336;12.340;2023-08-20T03:59:45;24.67;;;22.07;;
2061;SDS011;11070;51.336;12.340;2023-08-20T04:02:11;22.60;;;20.33;;
2061;SDS011;11070;51.336;12.340;2023-08-20T04:04:36;20.93;;;18.90;;
2061;SDS011;11070;51.336;12.340;2023-08-20T04:07:02;20.57;;;18.60;;
2061;SDS011;11070;51.336;12.340;2023-08-20T04:09:28;23.30;;;20.93;;
2061;SDS011;11070;51.336;12.340;2023-08-20T04:11:54;25.53;;;22.90;;
2061;SDS011;11070;51.336;12.340;2023-08-20T04:14:19;22.10;;;19.60;;
2061;SDS011;11070;51.336;12.340;2023-08-20T04:16:45;20.93;;;18.77;;
2061;SDS011;11070;51.336;12.340;2023-08-20T04:19:11;27.73;;;22.50;;
2061;SDS011;11070;51.336;12.340;2023-08-20T04:21:36;24.57;;;21.97;;
2061;SDS011;11070;51.336;12.340;2023-08-20T04:24:02;25.50;;;23.00;;
2061;SDS011;11070;51.336;12.340;2023-08-20T04:26:28;24.40;;;21.80;;
2061;SDS011;11070;51.336;12.340;2023-08-20T04:28:53;24.63;;;22.33;;
2061;SDS011;11070;51.336;12.340;2023-08-20T04:31:19;24.73;;;22.13;;
2061;SDS011;11070;51.336;12.340;2023-08-20T04:33:45;25.43;;;22.97;;
2061;SDS011;11070;51.336;12.340;2023-08-20T04:36:11;23.50;;;21.10;;
2061;SDS011;11070;51.336;12.340;2023-08-20T04:38:36;25.00;;;22.40;;
2061;SDS011;11070;51.336;12.340;2023-08-20T04:41:02;24.63;;;21.70;;
2061;SDS011;11070;51.336;12.340;2023-08-20T04:43:28;27.10;;;24.17;;
2061;SDS011;11070;51.336;12.340;2023-08-20T04:45:53;26.67;;;23.70;;
2061;SDS011;11070;51.336;12.340;2023-08-20T04:48:19;29.43;;;25.80;;
2061;SDS011;11070;51.336;12.340;2023-08-20T04:50:45;27.63;;;24.57;;
2061;SDS011;11070;51.336;12.340;2023-08-20T04:53:12;29.90;;;26.87;;
2061;SDS011;11070;51.336;12.340;2023-08-20T04:55:37;27.50;;;24.70;;
2061;SDS011;11070;51.336;12.340;2023-08-20T04:58:03;29.50;;;25.97;;
2061;SDS011;11070;51.336;12.340;2023-08-20T05:00:29;26.47;;;23.77;;
2061;SDS011;11070;51.336;12.340;2023-08-20T05:02:54;30.97;;;27.80;;
2061;SDS011;11070;51.336;12.340;2023-08-20T05:05:21;29.97;;;26.87;;
2061;SDS011;11070;51.336;12.340;2023-08-20T05:07:47;25.77;;;23.07;;
2061;SDS011;11070;51.336;12.340;2023-08-20T05:10:12;31.10;;;27.80;;
2061;SDS011;11070;51.336;12.340;2023-08-20T05:12:38;26.67;;;23.87;;
2061;SDS011;11070;51.336;12.340;2023-08-20T05:15:04;28.23;;;25.30;;
2061;SDS011;11070;51.336;12.340;2023-08-20T05:17:30;26.67;;;24.03;;
2061;SDS011;11070;51.336;12.340;2023-08-20T05:19:55;26.20;;;23.60;;
2061;SDS011;11070;51.336;12.340;2023-08-20T05:22:21;26.63;;;23.70;;
2061;SDS011;11070;51.336;12.340;2023-08-20T05:24:46;28.17;;;25.27;;
2061;SDS011;11070;51.336;12.340;2023-08-20T05:27:13;24.70;;;22.20;;
2061;SDS011;11070;51.336;12.340;2023-08-20T05:29:41;24.50;;;22.00;;
2061;SDS011;11070;51.336;12.340;2023-08-20T05:32:07;24.97;;;21.13;;
2061;SDS011;11070;51.336;12.340;2023-08-20T05:34:33;27.20;;;24.70;;
2061;SDS011;11070;51.336;12.340;2023-08-20T05:36:59;23.83;;;21.50;;
2061;SDS011;11070;51.336;12.340;2023-08-20T05:39:25;24.10;;;21.70;;
2061;SDS011;11070;51.336;12.340;2023-08-20T05:41:51;25.30;;;22.70;;
2061;SDS011;11070;51.336;12.340;2023-08-20T05:44:18;21.03;;;18.93;;
2061;SDS011;11070;51.336;12.340;2023-08-20T05:46:43;23.43;;;21.10;;
2061;SDS011;11070;51.336;12.340;2023-08-20T05:49:09;23.67;;;21.27;;
2061;SDS011;11070;51.336;12.340;2023-08-20T05:51:35;22.63;;;20.20;;
2061;SDS011;11070;51.336;12.340;2023-08-20T05:54:00;23.97;;;21.47;;
2061;SDS011;11070;51.336;12.340;2023-08-20T05:56:26;24.30;;;21.80;;
2061;SDS011;11070;51.336;12.340;2023-08-20T05:58:52;21.57;;;19.57;;
2061;SDS011;11070;51.336;12.340;2023-08-20T06:01:17;23.00;;;20.80;;
2061;SDS011;11070;51.336;12.340;2023-08-20T06:03:43;23.03;;;20.83;;
2061;SDS011;11070;51.336;12.340;2023-08-20T06:06:08;24.53;;;22.13;;
2061;SDS011;11070;51.336;12.340;2023-08-20T06:08:34;24.37;;;22.03;;
2061;SDS011;11070;51.336;12.340;2023-08-20T06:11:00;24.00;;;21.63;;
2061;SDS011;11070;51.336;12.340;2023-08-20T06:13:25;23.23;;;20.93;;
2061;SDS011;11070;51.336;12.340;2023-08-20T06:15:51;24.00;;;21.60;;
2061;SDS011;11070;51.336;12.340;2023-08-20T06:18:17;22.30;;;20.20;;
2061;SDS011;11070;51.336;12.340;2023-08-20T06:20:42;23.50;;;21.20;;
2061;SDS011;11070;51.336;12.340;2023-08-20T06:23:08;25.30;;;22.67;;
2061;SDS011;11070;51.336;12.340;2023-08-20T06:25:33;22.07;;;19.97;;
2061;SDS011;11070;51.336;12.340;2023-08-20T06:27:59;22.03;;;19.80;;
2061;SDS011;11070;51.336;12.340;2023-08-20T06:30:25;22.67;;;20.43;;
2061;SDS011;11070;51.336;12.340;2023-08-20T06:32:50;23.57;;;21.20;;
2061;SDS011;11070;51.336;12.340;2023-08-20T06:35:16;21.03;;;18.83;;
2061;SDS011;11070;51.336;12.340;2023-08-20T06:37:42;22.50;;;20.10;;
2061;SDS011;11070;51.336;12.340;2023-08-20T06:40:08;21.70;;;19.50;;
2061;SDS011;11070;51.336;12.340;2023-08-20T06:42:33;22.50;;;20.30;;
2061;SDS011;11070;51.336;12.340;2023-08-20T06:44:59;21.20;;;19.10;;
2061;SDS011;11070;51.336;12.340;2023-08-20T06:47:25;21.77;;;19.67;;
2061;SDS011;11070;51.336;12.340;2023-08-20T06:49:51;21.77;;;19.73;;
2061;SDS011;11070;51.336;12.340;2023-08-20T06:52:16;20.40;;;17.70;;
2061;SDS011;11070;51.336;12.340;2023-08-20T06:54:42;22.63;;;20.33;;
2061;SDS011;11070;51.336;12.340;2023-08-20T06:57:09;24.43;;;20.40;;
2061;SDS011;11070;51.336;12.340;2023-08-20T06:59:34;19.87;;;17.97;;
2061;SDS011;11070;51.336;12.340;2023-08-20T07:02:00;19.77;;;17.77;;
2061;SDS011;11070;51.336;12.340;2023-08-20T07:04:26;19.33;;;17.47;;
2061;SDS011;11070;51.336;12.340;2023-08-20T07:06:51;20.90;;;18.80;;
2061;SDS011;11070;51.336;12.340;2023-08-20T07:09:17;19.97;;;17.97;;
2061;SDS011;11070;51.336;12.340;2023-08-20T07:11:43;18.93;;;17.23;;
2061;SDS011;11070;51.336;12.340;2023-08-20T07:14:08;18.03;;;16.33;;
2061;SDS011;11070;51.336;12.340;2023-08-20T07:16:34;19.40;;;17.40;;
2061;SDS011;11070;51.336;12.340;2023-08-20T07:19:00;18.40;;;16.50;;
2061;SDS011;11070;51.336;12.340;2023-08-20T07:21:25;18.40;;;16.70;;
2061;SDS011;11070;51.336;12.340;2023-08-20T07:23:51;18.43;;;16.67;;
2061;SDS011;11070;51.336;12.340;2023-08-20T07:26:17;18.70;;;16.90;;
2061;SDS011;11070;51.336;12.340;2023-08-20T07:28:42;19.13;;;17.33;;
2061;SDS011;11070;51.336;12.340;2023-08-20T07:31:27;18.87;;;16.77;;
2061;SDS011;11070;51.336;12.340;2023-08-20T07:33:54;18.57;;;16.87;;
2061;SDS011;11070;51.336;12.340;2023-08-20T07:36:21;18.20;;;16.40;;
2061;SDS011;11070;51.336;12.340;2023-08-20T07:38:48;17.67;;;16.07;;
2061;SDS011;11070;51.336;12.340;2023-08-20T07:41:14;17.90;;;16.13;;
2061;SDS011;11070;51.336;12.340;2023-08-20T07:43:40;17.33;;;15.83;;
2061;SDS011;11070;51.336;12.340;2023-08-20T07:46:07;17.70;;;16.00;;
2061;SDS011;11070;51.336;12.340;2023-08-20T07:48:33;15.93;;;14.47;;
2061;SDS011;11070;51.336;12.340;2023-08-20T07:50:59;15.60;;;13.40;;
2061;SDS011;11070;51.336;12.340;2023-08-20T07:53:26;13.80;;;12.23;;
2061;SDS011;11070;51.336;12.340;2023-08-20T07:55:52;13.60;;;11.27;;
2061;SDS011;11070;51.336;12.340;2023-08-20T07:58:17;12.57;;;10.50;;
2061;SDS011;11070;51.336;12.340;2023-08-20T08:00:43;10.57;;;9.73;;
2061;SDS011;11070;51.336;12.340;2023-08-20T08:03:09;11.40;;;10.40;;
2061;SDS011;11070;51.336;12.340;2023-08-20T08:05:35;12.63;;;11.50;;
2061;SDS011;11070;51.336;12.340;2023-08-20T08:08:01;12.10;;;10.67;;
2061;SDS011;11070;51.336;12.340;2023-08-20T08:10:27;10.23;;;9.10;;
2061;SDS011;11070;51.336;12.340;2023-08-20T08:12:53;9.83;;;9.03;;
2061;SDS011;11070;51.336;12.340;2023-08-20T08:15:19;10.40;;;9.40;;
2061;SDS011;11070;51.336;12.340;2023-08-20T08:17:44;9.37;;;8.57;;
2061;SDS011;11070;51.336;12.340;2023-08-20T08:20:10;10.27;;;9.17;;
2061;SDS011;11070;51.336;12.340;2023-08-20T08:22:36;11.00;;;10.00;;
2061;SDS011;11070;51.336;12.340;2023-08-20T08:25:04;10.40;;;9.60;;
2061;SDS011;11070;51.336;12.340;2023-08-20T08:27:30;11.30;;;10.03;;
2061;SDS011;11070;51.336;12.340;2023-08-20T08:29:59;11.00;;;10.13;;
2061;SDS011;11070;51.336;12.340;2023-08-20T08:32:24;11.03;;;9.93;;
2061;SDS011;11070;51.336;12.340;2023-08-20T08:34:50;9.93;;;9.10;;
2061;SDS011;11070;51.336;12.340;2023-08-20T08:37:15;8.97;;;8.23;;
2061;SDS011;11070;51.336;12.340;2023-08-20T08:39:41;11.00;;;9.53;;
2061;SDS011;11070;51.336;12.340;2023-08-20T08:42:07;9.17;;;8.27;;
2061;SDS011;11070;51.336;12.340;2023-08-20T08:44:41;10.17;;;9.17;;
2061;SDS011;11070;51.336;12.340;2023-08-20T08:47:08;10.47;;;9.57;;
2061;SDS011;11070;51.336;12.340;2023-08-20T08:49:34;10.77;;;9.93;;
2061;SDS011;11070;51.336;12.340;2023-08-20T08:52:00;11.47;;;10.40;;
2061;SDS011;11070;51.336;12.340;2023-08-20T08:54:28;12.87;;;11.77;;
2061;SDS011;11070;51.336;12.340;2023-08-20T08:56:54;10.70;;;9.70;;
2061;SDS011;11070;51.336;12.340;2023-08-20T08:59:21;9.93;;;9.07;;
2061;SDS011;11070;51.336;12.340;2023-08-20T09:01:49;10.60;;;9.70;;
2061;SDS011;11070;51.336;12.340;2023-08-20T09:04:15;11.03;;;10.13;;
2061;SDS011;11070;51.336;12.340;2023-08-20T09:06:47;11.10;;;10.10;;
2061;SDS011;11070;51.336;12.340;2023-08-20T09:09:14;10.60;;;9.73;;
2061;SDS011;11070;51.336;12.340;2023-08-20T09:11:43;9.80;;;9.00;;
2061;SDS011;11070;51.336;12.340;2023-08-20T09:14:22;10.83;;;9.93;;
2061;SDS011;11070;51.336;12.340;2023-08-20T09:16:59;9.63;;;8.83;;
2061;SDS011;11070;51.336;12.340;2023-08-20T09:19:30;10.43;;;9.73;;
2061;SDS011;11070;51.336;12.340;2023-08-20T09:22:00;9.87;;;9.17;;
2061;SDS011;11070;51.336;12.340;2023-08-20T09:24:26;11.20;;;10.30;;
2061;SDS011;11070;51.336;12.340;2023-08-20T09:26:59;10.80;;;10.00;;
2061;SDS011;11070;51.336;12.340;2023-08-20T09:29:24;10.93;;;10.00;;
2061;SDS011;11070;51.336;12.340;2023-08-20T09:31:50;9.70;;;8.80;;
2061;SDS011;11070;51.336;12.340;2023-08-20T09:34:35;9.87;;;9.10;;
2061;SDS011;11070;51.336;12.340;2023-08-20T09:37:02;9.20;;;8.40;;
2061;SDS011;11070;51.336;12.340;2023-08-20T09:39:28;9.13;;;8.33;;
2061;SDS011;11070;51.336;12.340;2023-08-20T09:41:54;10.17;;;9.47;;
2061;SDS011;11070;51.336;12.340;2023-08-20T09:44:22;10.40;;;9.60;;
2061;SDS011;11070;51.336;12.340;2023-08-20T09:46:49;9.50;;;8.80;;
2061;SDS011;11070;51.336;12.340;2023-08-20T09:49:15;9.17;;;8.57;;
2061;SDS011;11070;51.336;12.340;2023-08-20T09:51:44;9.97;;;9.23;;
2061;SDS011;11070;51.336;12.340;2023-08-20T09:54:16;9.40;;;8.70;;
2061;SDS011;11070;51.336;12.340;2023-08-20T09:56:51;9.50;;;8.70;;
2061;SDS011;11070;51.336;12.340;2023-08-20T09:59:19;10.10;;;9.30;;
2061;SDS011;11070;51.336;12.340;2023-08-20T10:01:46;9.50;;;8.80;;
2061;SDS011;11070;51.336;12.340;2023-08-20T10:04:13;10.47;;;9.70;;
2061;SDS011;11070;51.336;12.340;2023-08-20T10:06:43;9.87;;;8.97;;
2061;SDS011;11070;51.336;12.340;2023-08-20T10:09:09;10.33;;;9.53;;
2061;SDS011;11070;51.336;12.340;2023-08-20T10:11:35;10.57;;;9.67;;
2061;SDS011;11070;51.336;12.340;2023-08-20T10:14:02;8.70;;;8.10;;
2061;SDS011;11070;51.336;12.340;2023-08-20T10:16:28;9.00;;;8.40;;
2061;SDS011;11070;51.336;12.340;2023-08-20T10:18:54;8.97;;;8.33;;
2061;SDS011;11070;51.336;12.340;2023-08-20T10:21:24;8.67;;;7.97;;
2061;SDS011;11070;51.336;12.340;2023-08-20T10:23:52;9.53;;;8.93;;
2061;SDS011;11070;51.336;12.340;2023-08-20T10:26:18;9.17;;;8.57;;
2061;SDS011;11070;51.336;12.340;2023-08-20T10:28:47;9.17;;;8.40;;
2061;SDS011;11070;51.336;12.340;2023-08-20T10:31:13;8.77;;;8.27;;
2061;SDS011;11070;51.336;12.340;2023-08-20T10:36:13;8.73;;;7.93;;
2061;SDS011;11070;51.336;12.340;2023-08-20T10:38:42;8.80;;;8.20;;
2061;SDS011;11070;51.336;12.340;2023-08-20T10:41:10;8.00;;;7.50;;
2061;SDS011;11070;51.336;12.340;2023-08-20T10:48:38;8.00;;;7.30;;
2061;SDS011;11070;51.336;12.340;2023-08-20T10:53:35;8.10;;;7.57;;
2061;SDS011;11070;51.336;12.340;2023-08-20T10:56:21;8.20;;;7.60;;
2061;SDS011;11070;51.336;12.340;2023-08-20T10:58:47;7.23;;;6.83;;
2061;SDS011;11070;51.336;12.340;2023-08-20T11:01:17;7.97;;;7.47;;
2061;SDS011;11070;51.336;12.340;2023-08-20T11:03:44;8.00;;;7.50;;
2061;SDS011;11070;51.336;12.340;2023-08-20T11:06:13;8.00;;;7.40;;
2061;SDS011;11070;51.336;12.340;2023-08-20T11:08:45;8.30;;;7.80;;
2061;SDS011;11070;51.336;12.340;2023-08-20T11:11:12;7.00;;;6.60;;
2061;SDS011;11070;51.336;12.340;2023-08-20T11:13:38;7.80;;;7.30;;
2061;SDS011;11070;51.336;12.340;2023-08-20T11:16:04;7.90;;;7.47;;
2061;SDS011;11070;51.336;12.340;2023-08-20T11:18:31;8.20;;;7.70;;
2061;SDS011;11070;51.336;12.340;2023-08-20T11:20:58;7.63;;;7.13;;
2061;SDS011;11070;51.336;12.340;2023-08-20T11:23:25;7.73;;;7.10;;
2061;SDS011;11070;51.336;12.340;2023-08-20T11:25:50;8.17;;;7.57;;
2061;SDS011;11070;51.336;12.340;2023-08-20T11:28:16;8.57;;;7.93;;
2061;SDS011;11070;51.336;12.340;2023-08-20T11:30:42;7.10;;;6.70;;
2061;SDS011;11070;51.336;12.340;2023-08-20T11:33:08;8.93;;;8.23;;
2061;SDS011;11070;51.336;12.340;2023-08-20T11:35:34;7.60;;;7.00;;
2061;SDS011;11070;51.336;12.340;2023-08-20T11:38:00;7.13;;;6.73;;
2061;SDS011;11070;51.336;12.340;2023-08-20T11:40:28;7.20;;;6.80;;
2061;SDS011;11070;51.336;12.340;2023-08-20T11:42:53;8.20;;;7.40;;
2061;SDS011;11070;51.336;12.340;2023-08-20T11:45:19;7.47;;;6.90;;
2061;SDS011;11070;51.336;12.340;2023-08-20T11:47:45;7.90;;;7.40;;
2061;SDS011;11070;51.336;12.340;2023-08-20T11:50:10;7.77;;;7.27;;
2061;SDS011;11070;51.336;12.340;2023-08-20T11:52:36;8.10;;;7.60;;
2061;SDS011;11070;51.336;12.340;2023-08-20T11:55:04;7.50;;;6.90;;
2061;SDS011;11070;51.336;12.340;2023-08-20T11:57:31;7.87;;;7.27;;
2061;SDS011;11070;51.336;12.340;2023-08-20T12:00:01;7.73;;;6.80;;
2061;SDS011;11070;51.336;12.340;2023-08-20T12:02:29;7.40;;;6.90;;
2061;SDS011;11070;51.336;12.340;2023-08-20T12:04:55;7.43;;;6.77;;
2061;SDS011;11070;51.336;12.340;2023-08-20T12:07:24;7.80;;;7.20;;
2061;SDS011;11070;51.336;12.340;2023-08-20T12:09:52;7.50;;;6.90;;
2061;SDS011;11070;51.336;12.340;2023-08-20T12:12:21;7.50;;;6.80;;
2061;SDS011;11070;51.336;12.340;2023-08-20T12:14:50;6.73;;;6.23;;
2061;SDS011;11070;51.336;12.340;2023-08-20T12:17:18;7.63;;;6.50;;
2061;SDS011;11070;51.336;12.340;2023-08-20T12:19:45;6.53;;;6.13;;
2061;SDS011;11070;51.336;12.340;2023-08-20T12:22:11;7.40;;;6.70;;
2061;SDS011;11070;51.336;12.340;2023-08-20T12:24:37;7.20;;;6.60;;
2061;SDS011;11070;51.336;12.340;2023-08-20T12:27:03;8.33;;;6.00;;
2061;SDS011;11070;51.336;12.340;2023-08-20T12:29:29;6.20;;;5.80;;
2061;SDS011;11070;51.336;12.340;2023-08-20T12:31:55;7.57;;;6.37;;
2061;SDS011;11070;51.336;12.340;2023-08-20T12:34:20;6.87;;;6.37;;
2061;SDS011;11070;51.336;12.340;2023-08-20T12:36:50;6.90;;;6.30;;
2061;SDS011;11070;51.336;12.340;2023-08-20T12:39:16;6.67;;;6.27;;
2061;SDS011;11070;51.336;12.340;2023-08-20T12:41:42;6.67;;;6.37;;
2061;SDS011;11070;51.336;12.340;2023-08-20T12:44:10;6.23;;;5.83;;
2061;SDS011;11070;51.336;12.340;2023-08-20T12:46:36;6.23;;;5.83;;
2061;SDS011;11070;51.336;12.340;2023-08-20T12:49:02;6.47;;;6.07;;
2061;SDS011;11070;51.336;12.340;2023-08-20T12:51:28;6.87;;;6.37;;
2061;SDS011;11070;51.336;12.340;2023-08-20T12:53:54;7.10;;;6.60;;
2061;SDS011;11070;51.336;12.340;2023-08-20T12:56:20;6.70;;;6.23;;
2061;SDS011;11070;51.336;12.340;2023-08-20T12:58:48;6.53;;;6.03;;
2061;SDS011;11070;51.336;12.340;2023-08-20T13:01:13;6.87;;;6.47;;
2061;SDS011;11070;51.336;12.340;2023-08-20T13:03:39;7.03;;;6.63;;
2061;SDS011;11070;51.336;12.340;2023-08-20T13:06:05;6.60;;;6.23;;
2061;SDS011;11070;51.336;12.340;2023-08-20T13:08:31;7.30;;;6.70;;
2061;SDS011;11070;51.336;12.340;2023-08-20T13:10:58;7.80;;;7.07;;
2061;SDS011;11070;51.336;12.340;2023-08-20T13:13:25;7.87;;;7.37;;
2061;SDS011;11070;51.336;12.340;2023-08-20T13:15:51;7.10;;;6.70;;
2061;SDS011;11070;51.336;12.340;2023-08-20T13:18:18;7.40;;;7.00;;
2061;SDS011;11070;51.336;12.340;2023-08-20T13:20:44;7.63;;;7.03;;
2061;SDS011;11070;51.336;12.340;2023-08-20T13:23:10;6.90;;;6.50;;
2061;SDS011;11070;51.336;12.340;2023-08-20T13:25:35;7.67;;;7.20;;
2061;SDS011;11070;51.336;12.340;2023-08-20T13:28:01;7.20;;;6.70;;
2061;SDS011;11070;51.336;12.340;2023-08-20T13:30:28;7.03;;;6.60;;
2061;SDS011;11070;51.336;12.340;2023-08-20T13:32:53;6.77;;;6.37;;
2061;SDS011;11070;51.336;12.340;2023-08-20T13:35:19;7.23;;;6.73;;
2061;SDS011;11070;51.336;12.340;2023-08-20T13:37:45;7.20;;;6.70;;
2061;SDS011;11070;51.336;12.340;2023-08-20T13:40:11;8.63;;;7.80;;
2061;SDS011;11070;51.336;12.340;2023-08-20T13:42:36;8.07;;;7.43;;
2061;SDS011;11070;51.336;12.340;2023-08-20T13:45:02;7.30;;;6.80;;
2061;SDS011;11070;51.336;12.340;2023-08-20T13:47:28;8.10;;;7.50;;
2061;SDS011;11070;51.336;12.340;2023-08-20T13:49:54;7.80;;;7.17;;
2061;SDS011;11070;51.336;12.340;2023-08-20T13:52:20;8.10;;;7.60;;
2061;SDS011;11070;51.336;12.340;2023-08-20T13:54:46;8.10;;;7.50;;
2061;SDS011;11070;51.336;12.340;2023-08-20T13:57:11;9.00;;;8.20;;
2061;SDS011;11070;51.336;12.340;2023-08-20T13:59:37;8.57;;;7.90;;
2061;SDS011;11070;51.336;12.340;2023-08-20T14:02:03;7.60;;;7.00;;
2061;SDS011;11070;51.336;12.340;2023-08-20T14:04:29;8.43;;;7.83;;
2061;SDS011;11070;51.336;12.340;2023-08-20T14:06:55;7.77;;;7.27;;
2061;SDS011;11070;51.336;12.340;2023-08-20T14:09:20;8.17;;;7.57;;
2061;SDS011;11070;51.336;12.340;2023-08-20T14:11:46;9.90;;;8.90;;
2061;SDS011;11070;51.336;12.340;2023-08-20T14:14:12;8.33;;;7.73;;
2061;SDS011;11070;51.336;12.340;2023-08-20T14:16:38;8.27;;;7.57;;
2061;SDS011;11070;51.336;12.340;2023-08-20T14:19:04;8.27;;;7.67;;
2061;SDS011;11070;51.336;12.340;2023-08-20T14:21:29;11.30;;;9.87;;
2061;SDS011;11070;51.336;12.340;2023-08-20T14:23:55;8.60;;;7.93;;
2061;SDS011;11070;51.336;12.340;2023-08-20T14:26:21;9.97;;;9.27;;
2061;SDS011;11070;51.336;12.340;2023-08-20T14:28:46;8.87;;;8.27;;
2061;SDS011;11070;51.336;12.340;2023-08-20T14:31:12;9.43;;;8.40;;
2061;SDS011;11070;51.336;12.340;2023-08-20T14:33:38;8.10;;;7.37;;
2061;SDS011;11070;51.336;12.340;2023-08-20T14:36:03;8.77;;;8.07;;
2061;SDS011;11070;51.336;12.340;2023-08-20T14:38:29;8.57;;;7.90;;
2061;SDS011;11070;51.336;12.340;2023-08-20T14:41:02;8.43;;;7.83;;
2061;SDS011;11070;51.336;12.340;2023-08-20T14:43:28;7.97;;;7.30;;
2061;SDS011;11070;51.336;12.340;2023-08-20T14:45:55;7.97;;;7.10;;
2061;SDS011;11070;51.336;12.340;2023-08-20T14:48:21;8.03;;;7.43;;